createdAt,value
2018-08-18T00:01:59.762Z,8.97
2018-08-18T00:04:33.323Z,9.10
2018-08-18T00:07:01.923Z,8.77
2018-08-18T00:09:30.026Z,9.23
2018-08-18T00:11:57.795Z,8.60
2018-08-18T00:14:25.931Z,9.27
2018-08-18T00:16:53.828Z,8.40
2018-08-18T00:19:22.734Z,10.10
2018-08-18T00:21:50.559Z,10.00
2018-08-18T00:24:18.399Z,9.33
2018-08-18T00:26:46.160Z,9.40
2018-08-18T00:29:13.983Z,9.37
2018-08-18T00:31:43.092Z,8.80
2018-08-18T00:34:10.904Z,8.90
2018-08-18T00:36:38.660Z,8.40
2018-08-18T00:39:07.487Z,8.57
2018-08-18T00:41:35.487Z,9.70
2018-08-18T00:44:03.268Z,9.77
2018-08-18T00:46:32.140Z,9.33
2018-08-18T00:49:00.111Z,8.80
2018-08-18T00:51:33.349Z,9.60
2018-08-18T00:54:02.093Z,8.63
2018-08-18T00:56:29.964Z,8.50
2018-08-18T00:58:57.735Z,8.60
2018-08-18T01:01:25.600Z,10.20
2018-08-18T01:03:58.452Z,9.33
2018-08-18T01:06:33.184Z,9.30
2018-08-18T01:09:01.823Z,9.20
2018-08-18T01:11:30.026Z,9.57
2018-08-18T01:14:01.546Z,8.00
2018-08-18T01:16:29.519Z,8.63
2018-08-18T01:18:57.331Z,8.50
2018-08-18T01:21:25.507Z,7.83
2018-08-18T01:23:53.607Z,8.40
2018-08-18T01:26:21.419Z,8.10
2018-08-18T01:28:49.431Z,7.03
2018-08-18T01:31:20.487Z,8.80
2018-08-18T01:33:49.192Z,8.43
2018-08-18T01:36:16.960Z,7.03
2018-08-18T01:38:44.834Z,7.83
2018-08-18T01:41:20.819Z,8.57
2018-08-18T01:44:04.793Z,7.50
2018-08-18T01:46:32.574Z,6.93
2018-08-18T01:49:05.999Z,6.93
2018-08-18T01:51:34.005Z,7.23
2018-08-18T01:54:01.841Z,7.07
2018-08-18T01:56:29.782Z,7.07
2018-08-18T01:58:57.668Z,7.50
2018-08-18T02:01:25.521Z,6.20
2018-08-18T02:03:53.355Z,6.23
2018-08-18T02:06:21.138Z,6.97
2018-08-18T02:08:58.021Z,6.90
2018-08-18T02:11:26.500Z,5.60
2018-08-18T02:13:55.828Z,6.40
2018-08-18T02:16:26.439Z,5.60
2018-08-18T02:18:54.329Z,6.17
2018-08-18T02:21:29.734Z,6.90
2018-08-18T02:24:01.344Z,6.33
2018-08-18T02:26:29.284Z,6.20
2018-08-18T02:28:57.100Z,5.83
2018-08-18T02:31:25.045Z,6.43
2018-08-18T02:33:53.252Z,5.47
2018-08-18T02:36:22.579Z,5.40
2018-08-18T02:38:55.016Z,5.33
2018-08-18T02:41:23.744Z,6.67
2018-08-18T02:43:51.724Z,5.90
2018-08-18T02:46:37.651Z,4.80
2018-08-18T02:49:05.912Z,7.00
2018-08-18T02:51:34.292Z,6.83
2018-08-18T02:54:02.559Z,6.30
2018-08-18T02:56:35.936Z,6.30
2018-08-18T02:59:08.139Z,5.50
2018-08-18T03:01:38.128Z,5.50
2018-08-18T03:04:13.903Z,5.83
2018-08-18T03:06:42.068Z,6.07
2018-08-18T03:09:11.446Z,6.33
2018-08-18T03:11:41.589Z,5.90
2018-08-18T03:14:10.291Z,6.33
2018-08-18T03:16:39.627Z,6.70
2018-08-18T03:19:07.535Z,6.03
2018-08-18T03:21:43.723Z,6.70
2018-08-18T03:24:19.566Z,6.27
2018-08-18T03:26:50.091Z,7.20
2018-08-18T03:29:18.560Z,5.87
2018-08-18T03:31:46.811Z,6.60
2018-08-18T03:34:14.895Z,6.50
2018-08-18T03:36:45.720Z,6.73
2018-08-18T03:39:22.948Z,5.80
2018-08-18T03:41:52.426Z,6.37
2018-08-18T03:44:20.265Z,5.93
2018-08-18T03:46:48.201Z,6.13
2018-08-18T03:49:15.988Z,5.60
2018-08-18T03:51:47.807Z,6.30
2018-08-18T03:54:15.719Z,5.97
2018-08-18T03:56:43.807Z,5.70
2018-08-18T03:59:11.621Z,6.83
2018-08-18T04:01:43.539Z,4.97
2018-08-18T04:04:12.249Z,5.53
2018-08-18T04:06:43.002Z,6.00
2018-08-18T04:09:32.579Z,6.30
2018-08-18T04:12:02.079Z,5.83
2018-08-18T04:14:34.403Z,5.70
2018-08-18T04:17:02.158Z,5.93
2018-08-18T04:19:30.043Z,5.10
2018-08-18T04:21:57.788Z,5.80
2018-08-18T04:24:31.732Z,5.87
2018-08-18T04:26:59.992Z,5.73
2018-08-18T04:29:27.715Z,6.30
2018-08-18T04:31:56.003Z,6.97
2018-08-18T04:34:23.770Z,6.50
2018-08-18T04:36:51.503Z,5.07
2018-08-18T04:39:19.228Z,6.20
2018-08-18T04:41:46.996Z,5.97
2018-08-18T04:44:14.712Z,5.90
2018-08-18T04:46:42.513Z,6.87
2018-08-18T04:49:10.238Z,5.53
2018-08-18T04:51:37.995Z,6.77
2018-08-18T04:54:06.055Z,6.37
2018-08-18T04:56:33.931Z,5.90
2018-08-18T04:59:01.718Z,6.07
2018-08-18T05:01:29.575Z,5.33
2018-08-18T05:04:01.168Z,5.90
2018-08-18T05:06:30.207Z,6.47
2018-08-18T05:08:59.264Z,6.03
2018-08-18T05:11:27.717Z,6.10
2018-08-18T05:13:55.546Z,6.03
2018-08-18T05:16:23.336Z,5.60
2018-08-18T05:18:51.288Z,6.97
2018-08-18T05:21:20.377Z,6.40
2018-08-18T05:23:48.289Z,6.20
2018-08-18T05:26:16.222Z,6.77
2018-08-18T05:28:44.248Z,6.73
2018-08-18T05:31:12.111Z,6.67
2018-08-18T05:33:39.958Z,5.90
2018-08-18T05:36:08.671Z,5.83
2018-08-18T05:38:37.372Z,6.30
2018-08-18T05:41:05.107Z,6.80
2018-08-18T05:43:32.994Z,7.40
2018-08-18T05:46:02.295Z,7.07
2018-08-18T05:48:30.212Z,6.40
2018-08-18T05:50:58.004Z,6.80
2018-08-18T05:53:26.903Z,6.00
2018-08-18T05:55:54.818Z,7.07
2018-08-18T05:58:22.650Z,6.53
2018-08-18T06:01:26.835Z,7.17
2018-08-18T06:04:00.305Z,5.83
2018-08-18T06:06:28.035Z,4.73
2018-08-18T06:08:55.764Z,6.27
2018-08-18T06:11:23.494Z,6.60
2018-08-18T06:13:51.230Z,6.07
2018-08-18T06:16:18.960Z,7.23
2018-08-18T06:18:46.704Z,5.83
2018-08-18T06:21:14.561Z,7.07
2018-08-18T06:23:42.252Z,6.17
2018-08-18T06:26:10.511Z,6.70
2018-08-18T06:28:38.235Z,7.00
2018-08-18T06:31:05.965Z,7.40
2018-08-18T06:33:33.746Z,7.23
2018-08-18T06:36:02.037Z,6.20
2018-08-18T06:38:29.775Z,5.37
2018-08-18T06:40:59.772Z,6.30
2018-08-18T06:43:29.007Z,6.13
2018-08-18T06:45:56.976Z,6.27
2018-08-18T06:48:24.852Z,6.70
2018-08-18T06:50:52.599Z,6.57
2018-08-18T06:53:20.296Z,7.93
2018-08-18T06:55:48.069Z,6.80
2018-08-18T06:58:15.807Z,6.37
2018-08-18T07:00:43.588Z,4.77
2018-08-18T07:03:22.552Z,5.60
2018-08-18T07:05:50.351Z,5.87
2018-08-18T07:08:18.087Z,7.20
2018-08-18T07:10:45.814Z,6.77
2018-08-18T07:13:13.536Z,5.10
2018-08-18T07:15:43.629Z,5.40
2018-08-18T07:18:12.270Z,5.23
2018-08-18T07:20:40.374Z,6.00
2018-08-18T07:23:08.279Z,5.43
2018-08-18T07:25:49.007Z,5.87
2018-08-18T07:28:19.406Z,5.33
2018-08-18T07:30:47.114Z,5.67
2018-08-18T07:33:14.851Z,5.60
2018-08-18T07:35:42.546Z,5.13
2018-08-18T07:38:10.325Z,4.50
2018-08-18T07:40:44.546Z,3.73
2018-08-18T07:43:14.016Z,4.63
2018-08-18T07:45:42.007Z,4.53
2018-08-18T07:48:09.957Z,3.87
2018-08-18T07:50:37.679Z,4.07
2018-08-18T07:53:06.009Z,3.47
2018-08-18T07:55:33.700Z,3.40
2018-08-18T07:58:02.876Z,3.10
2018-08-18T08:00:34.075Z,3.70
2018-08-18T08:03:01.986Z,3.60
2018-08-18T08:05:30.246Z,3.90
2018-08-18T08:07:58.025Z,3.17
2018-08-18T08:10:25.920Z,4.00
2018-08-18T08:12:53.961Z,3.30
2018-08-18T08:15:21.656Z,4.10
2018-08-18T08:17:49.422Z,3.73
2018-08-18T08:20:17.816Z,3.03
2018-08-18T08:22:46.371Z,3.33
2018-08-18T08:25:14.164Z,3.30
2018-08-18T08:27:45.120Z,3.30
2018-08-18T08:30:12.924Z,2.90
2018-08-18T08:32:40.659Z,2.50
2018-08-18T08:35:09.351Z,2.17
2018-08-18T08:37:37.152Z,2.30
2018-08-18T08:40:08.006Z,2.40
2018-08-18T08:42:35.780Z,2.60
2018-08-18T08:45:03.907Z,2.80
2018-08-18T08:47:31.677Z,2.00
2018-08-18T08:49:59.383Z,2.00
2018-08-18T08:52:30.511Z,2.10
2018-08-18T08:54:58.239Z,2.90
2018-08-18T08:57:25.944Z,1.63
2018-08-18T08:59:53.669Z,1.70
2018-08-18T09:02:21.399Z,1.90
2018-08-18T09:04:49.100Z,2.10
2018-08-18T09:07:16.874Z,2.30
2018-08-18T09:09:44.628Z,2.10
2018-08-18T09:12:12.387Z,2.40
2018-08-18T09:14:40.087Z,2.67
2018-08-18T09:17:07.806Z,2.40
2018-08-18T09:19:35.555Z,2.20
2018-08-18T09:22:03.708Z,2.00
2018-08-18T09:24:32.204Z,2.13
2018-08-18T09:27:01.787Z,2.17
2018-08-18T09:29:34.581Z,3.13
2018-08-18T09:32:02.567Z,2.47
2018-08-18T09:34:36.122Z,3.33
2018-08-18T09:37:05.832Z,3.87
2018-08-18T09:39:34.204Z,4.03
2018-08-18T09:42:03.528Z,4.23
2018-08-18T09:44:33.164Z,3.00
2018-08-18T09:47:01.027Z,2.90
2018-08-18T09:49:29.943Z,2.77
2018-08-18T09:51:58.099Z,3.47
2018-08-18T09:54:26.581Z,3.90
2018-08-18T09:56:54.592Z,4.33
2018-08-18T09:59:22.398Z,3.63
2018-08-18T10:01:50.125Z,3.80
2018-08-18T10:04:17.923Z,3.83
2018-08-18T10:06:45.765Z,3.60
2018-08-18T10:09:13.515Z,4.77
2018-08-18T10:11:41.669Z,3.50
2018-08-18T10:14:09.487Z,3.33
2018-08-18T10:16:37.843Z,3.93
2018-08-18T10:19:05.651Z,3.10
2018-08-18T10:21:33.361Z,2.63
2018-08-18T10:24:01.051Z,3.50
2018-08-18T10:26:28.940Z,2.53
2018-08-18T10:29:10.015Z,2.67
2018-08-18T10:31:51.680Z,2.80
2018-08-18T10:34:20.874Z,3.90
2018-08-18T10:36:52.798Z,2.00
2018-08-18T10:39:20.767Z,1.93
2018-08-18T10:41:58.737Z,2.30
2018-08-18T10:44:26.596Z,2.33
2018-08-18T10:47:08.306Z,2.03
2018-08-18T10:49:47.559Z,1.97
2018-08-18T10:52:27.899Z,2.20
2018-08-18T10:54:56.059Z,2.97
2018-08-18T10:57:35.140Z,2.30
2018-08-18T11:00:06.895Z,2.10
2018-08-18T11:02:35.536Z,2.73
2018-08-18T11:05:03.687Z,2.97
2018-08-18T11:07:31.452Z,2.40
2018-08-18T11:09:59.228Z,2.50
2018-08-18T11:12:26.982Z,2.80
2018-08-18T11:15:00.710Z,2.20
2018-08-18T11:17:29.829Z,1.60
2018-08-18T11:20:03.296Z,1.60
2018-08-18T11:22:47.739Z,2.23
2018-08-18T11:25:15.518Z,1.80
2018-08-18T11:27:43.317Z,1.90
2018-08-18T11:30:11.116Z,1.60
2018-08-18T11:32:39.285Z,1.97
2018-08-18T11:35:07.552Z,1.20
2018-08-18T11:37:48.418Z,1.10
2018-08-18T11:40:16.327Z,1.53
2018-08-18T11:42:44.111Z,1.30
2018-08-18T11:45:11.923Z,1.50
2018-08-18T11:47:43.201Z,1.27
2018-08-18T11:50:10.996Z,1.60
2018-08-18T11:52:42.551Z,1.53
2018-08-18T11:55:10.388Z,1.80
2018-08-18T11:57:38.130Z,1.80
2018-08-18T12:00:06.359Z,1.60
2018-08-18T12:02:34.171Z,2.80
2018-08-18T12:05:02.138Z,2.50
2018-08-18T12:07:30.112Z,2.40
2018-08-18T12:09:57.941Z,2.57
2018-08-18T12:12:25.647Z,2.87
2018-08-18T12:14:53.911Z,2.20
2018-08-18T12:17:21.767Z,2.50
2018-08-18T12:19:50.881Z,2.40
2018-08-18T12:22:18.672Z,1.67
2018-08-18T12:24:50.878Z,2.10
2018-08-18T12:27:18.620Z,1.90
2018-08-18T12:29:46.425Z,2.63
2018-08-18T12:32:19.775Z,1.97
2018-08-18T12:34:47.438Z,2.60
2018-08-18T12:37:15.133Z,3.23
2018-08-18T12:39:42.851Z,2.10
2018-08-18T12:42:15.163Z,2.50
2018-08-18T12:44:43.065Z,3.50
2018-08-18T12:47:10.830Z,2.53
2018-08-18T12:49:38.689Z,2.90
2018-08-18T12:52:06.403Z,2.20
2018-08-18T12:54:34.136Z,1.80
2018-08-18T12:57:01.900Z,2.13
2018-08-18T12:59:29.602Z,2.27
2018-08-18T13:01:57.344Z,2.00
2018-08-18T13:04:25.173Z,2.90
2018-08-18T13:06:53.192Z,1.90
2018-08-18T13:09:22.308Z,2.30
2018-08-18T13:11:51.371Z,2.47
2018-08-18T13:14:21.757Z,2.67
2018-08-18T13:16:49.518Z,2.03
2018-08-18T13:19:19.270Z,2.80
2018-08-18T13:21:47.209Z,2.57
2018-08-18T13:24:15.251Z,2.13
2018-08-18T13:26:42.938Z,2.27
2018-08-18T13:29:10.627Z,2.50
2018-08-18T13:31:39.135Z,2.77
2018-08-18T13:34:08.206Z,3.10
2018-08-18T13:36:37.496Z,2.53
2018-08-18T13:39:08.345Z,2.10
2018-08-18T13:41:36.089Z,2.73
2018-08-18T13:44:03.827Z,1.77
2018-08-18T13:46:41.768Z,2.17
2018-08-18T13:49:09.571Z,2.37
2018-08-18T13:51:37.307Z,2.27
2018-08-18T13:54:05.051Z,2.40
2018-08-18T13:56:32.885Z,2.60
2018-08-18T13:59:00.684Z,2.10
2018-08-18T14:01:45.065Z,4.20
2018-08-18T14:04:19.684Z,1.97
2018-08-18T14:06:55.155Z,4.50
2018-08-18T14:09:22.871Z,2.83
2018-08-18T14:11:54.034Z,2.60
2018-08-18T14:14:21.746Z,2.77
2018-08-18T14:16:50.418Z,3.20
2018-08-18T14:19:20.043Z,2.10
2018-08-18T14:21:49.584Z,1.80
2018-08-18T14:24:20.551Z,2.63
2018-08-18T14:26:52.757Z,2.43
2018-08-18T14:29:20.467Z,3.70
2018-08-18T14:31:48.171Z,3.20
2018-08-18T14:34:16.056Z,6.43
2018-08-18T14:36:43.611Z,2.97
2018-08-18T14:39:21.514Z,3.50
2018-08-18T14:41:49.217Z,2.23
2018-08-18T14:44:16.955Z,2.60
2018-08-18T14:46:44.854Z,2.77
2018-08-18T14:49:12.432Z,2.33
2018-08-18T14:51:40.163Z,2.20
2018-08-18T14:54:08.226Z,1.97
2018-08-18T14:56:35.887Z,2.10
2018-08-18T14:59:03.627Z,2.10
2018-08-18T15:01:31.342Z,2.20
2018-08-18T15:03:59.038Z,2.60
2018-08-18T15:06:26.760Z,2.00
2018-08-18T15:08:54.512Z,2.17
2018-08-18T15:11:22.211Z,1.90
2018-08-18T15:13:49.921Z,1.70
2018-08-18T15:16:17.628Z,2.60
2018-08-18T15:18:45.376Z,3.40
2018-08-18T15:21:13.175Z,1.63
2018-08-18T15:23:40.798Z,2.53
2018-08-18T15:26:08.567Z,2.60
2018-08-18T15:28:36.352Z,1.73
2018-08-18T15:31:05.330Z,2.00
2018-08-18T15:33:33.047Z,2.10
2018-08-18T15:36:00.751Z,2.60
2018-08-18T15:38:41.147Z,2.60
2018-08-18T15:41:09.588Z,2.80
2018-08-18T15:43:37.291Z,2.50
2018-08-18T15:46:05.459Z,2.83
2018-08-18T15:48:33.623Z,2.53
2018-08-18T15:51:01.376Z,2.80
2018-08-18T15:53:57.432Z,2.17
2018-08-18T15:56:26.207Z,2.80
2018-08-18T15:58:54.761Z,2.60
2018-08-18T16:01:24.567Z,2.17
2018-08-18T16:03:53.050Z,3.00
2018-08-18T16:06:20.818Z,2.90
2018-08-18T16:08:48.619Z,2.40
2018-08-18T16:11:16.331Z,2.03
2018-08-18T16:13:44.183Z,2.70
2018-08-18T16:16:12.098Z,3.20
2018-08-18T16:18:39.927Z,1.77
2018-08-18T16:21:13.933Z,3.50
2018-08-18T16:23:42.216Z,3.10
2018-08-18T16:26:10.838Z,2.43
2018-08-18T16:28:39.034Z,3.20
2018-08-18T16:31:07.001Z,2.03
2018-08-18T16:33:34.751Z,2.13
2018-08-18T16:36:02.488Z,2.37
2018-08-18T16:38:30.331Z,2.10
2018-08-18T16:40:58.034Z,2.63
2018-08-18T16:43:25.727Z,1.70
2018-08-18T16:45:53.523Z,2.63
2018-08-18T16:48:21.216Z,2.50
2018-08-18T16:50:48.948Z,2.57
2018-08-18T16:53:16.614Z,2.20
2018-08-18T16:55:45.464Z,1.77
2018-08-18T16:58:13.192Z,2.10
2018-08-18T17:00:56.228Z,1.80
2018-08-18T17:03:29.858Z,1.50
2018-08-18T17:05:58.352Z,1.80
2018-08-18T17:08:26.161Z,1.87
2018-08-18T17:10:53.827Z,2.30
2018-08-18T17:13:21.492Z,1.80
2018-08-18T17:15:49.596Z,1.60
2018-08-18T17:18:17.319Z,1.60
2018-08-18T17:21:03.286Z,1.67
2018-08-18T17:23:32.422Z,1.20
2018-08-18T17:26:00.199Z,1.77
2018-08-18T17:28:28.670Z,3.40
2018-08-18T17:30:56.399Z,2.43
2018-08-18T17:33:25.339Z,3.80
2018-08-18T17:35:53.059Z,3.00
2018-08-18T17:38:21.301Z,2.67
2018-08-18T17:40:49.114Z,1.80
2018-08-18T17:43:18.051Z,1.90
2018-08-18T17:45:51.407Z,1.93
2018-08-18T17:48:19.184Z,1.60
2018-08-18T17:50:46.930Z,1.90
2018-08-18T17:53:14.667Z,1.77
2018-08-18T17:55:44.887Z,2.10
2018-08-18T17:58:12.612Z,2.47
2018-08-18T18:00:40.332Z,2.53
2018-08-18T18:03:08.132Z,2.50
2018-08-18T18:05:35.826Z,2.43
2018-08-18T18:08:04.799Z,2.03
2018-08-18T18:10:33.770Z,2.70
2018-08-18T18:13:04.451Z,2.00
2018-08-18T18:15:36.342Z,2.10
2018-08-18T18:18:04.823Z,1.23
2018-08-18T18:20:33.455Z,1.50
2018-08-18T18:23:01.227Z,1.80
2018-08-18T18:25:29.407Z,2.30
2018-08-18T18:27:58.997Z,1.70
2018-08-18T18:30:27.680Z,2.10
2018-08-18T18:32:55.945Z,3.13
2018-08-18T18:35:24.363Z,2.40
2018-08-18T18:37:52.879Z,2.57
2018-08-18T18:40:20.608Z,2.10
2018-08-18T18:42:48.286Z,2.20
2018-08-18T18:45:15.974Z,2.60
2018-08-18T18:47:44.907Z,2.80
2018-08-18T18:50:16.389Z,4.43
2018-08-18T18:52:44.308Z,2.40
2018-08-18T18:55:12.088Z,1.87
2018-08-18T18:57:53.518Z,2.00
2018-08-18T19:00:21.307Z,2.10
2018-08-18T19:02:50.672Z,2.53
2018-08-18T19:05:24.054Z,3.10
2018-08-18T19:08:05.838Z,3.97
2018-08-18T19:10:33.582Z,3.80
2018-08-18T19:13:01.255Z,4.10
2018-08-18T19:15:28.971Z,4.20
2018-08-18T19:17:56.648Z,3.30
2018-08-18T19:20:26.000Z,3.10
2018-08-18T19:23:01.827Z,3.60
2018-08-18T19:25:29.827Z,2.57
2018-08-18T19:27:57.689Z,3.20
2018-08-18T19:30:25.391Z,3.93
2018-08-18T19:32:53.133Z,2.50
2018-08-18T19:35:26.525Z,2.80
2018-08-18T19:37:54.275Z,3.40
2018-08-18T19:40:22.435Z,2.80
2018-08-18T19:42:50.179Z,3.00
2018-08-18T19:45:17.906Z,3.00
2018-08-18T19:47:45.997Z,3.50
2018-08-18T19:50:13.999Z,2.73
2018-08-18T19:52:41.788Z,3.07
2018-08-18T19:55:10.876Z,2.40
2018-08-18T19:57:39.143Z,3.40
2018-08-18T20:00:26.531Z,2.97
2018-08-18T20:03:10.923Z,2.83
2018-08-18T20:05:38.737Z,2.70
2018-08-18T20:08:06.527Z,3.20
2018-08-18T20:10:42.812Z,4.00
2018-08-18T20:13:10.647Z,3.50
2018-08-18T20:15:38.371Z,3.03
2018-08-18T20:18:06.140Z,3.57
2018-08-18T20:20:33.899Z,2.60
2018-08-18T20:23:01.618Z,2.97
2018-08-18T20:25:29.641Z,2.53
2018-08-18T20:27:57.338Z,3.20
2018-08-18T20:30:25.079Z,2.47
2018-08-18T20:32:52.791Z,2.97
2018-08-18T20:35:20.534Z,3.10
2018-08-18T20:37:48.295Z,3.00
2018-08-18T20:40:16.051Z,3.50
2018-08-18T20:42:44.266Z,3.60
2018-08-18T20:45:12.755Z,3.40
2018-08-18T20:47:42.409Z,4.30
2018-08-18T20:50:10.862Z,4.03
2018-08-18T20:52:40.020Z,4.07
2018-08-18T20:55:08.459Z,6.17
2018-08-18T20:57:36.333Z,5.63
2018-08-18T21:00:05.923Z,5.90
2018-08-18T21:02:33.671Z,6.90
2018-08-18T21:05:02.560Z,6.77
2018-08-18T21:07:31.358Z,5.03
2018-08-18T21:09:59.544Z,5.77
2018-08-18T21:12:47.406Z,7.33
2018-08-18T21:15:15.731Z,5.40
2018-08-18T21:17:43.515Z,6.40
2018-08-18T21:20:14.439Z,5.40
2018-08-18T21:22:42.179Z,5.17
2018-08-18T21:25:11.291Z,4.10
2018-08-18T21:27:39.312Z,4.60
2018-08-18T21:30:12.060Z,5.23
2018-08-18T21:32:39.795Z,6.40
2018-08-18T21:35:07.704Z,4.93
2018-08-18T21:37:35.411Z,5.00
2018-08-18T21:40:03.890Z,4.70
2018-08-18T21:42:31.671Z,4.70
2018-08-18T21:44:59.447Z,4.00
2018-08-18T21:47:27.196Z,6.30
2018-08-18T21:49:54.915Z,8.93
2018-08-18T21:52:22.635Z,5.33
2018-08-18T21:54:51.354Z,4.33
2018-08-18T21:57:19.100Z,4.37
2018-08-18T21:59:58.894Z,4.50
2018-08-18T22:02:39.851Z,4.47
2018-08-18T22:05:10.308Z,4.20
2018-08-18T22:07:44.295Z,4.10
2018-08-18T22:10:12.055Z,4.57
2018-08-18T22:12:40.102Z,5.13
2018-08-18T22:15:16.303Z,4.90
2018-08-18T22:17:44.323Z,4.77
2018-08-18T22:20:12.316Z,5.20
2018-08-18T22:22:40.074Z,4.73
2018-08-18T22:25:07.904Z,5.50
2018-08-18T22:27:36.292Z,5.30
2018-08-18T22:30:06.442Z,5.03
2018-08-18T22:32:35.196Z,5.60
2018-08-18T22:35:03.507Z,4.60
2018-08-18T22:37:31.244Z,4.87
2018-08-18T22:39:59.296Z,4.87
2018-08-18T22:42:27.018Z,4.50
2018-08-18T22:44:54.708Z,5.03
2018-08-18T22:47:22.475Z,5.57
2018-08-18T22:49:51.873Z,4.47
2018-08-18T22:52:19.597Z,4.87
2018-08-18T22:54:47.323Z,4.57
2018-08-18T22:57:15.071Z,5.10
2018-08-18T22:59:42.811Z,5.20
2018-08-18T23:02:10.552Z,5.20
2018-08-18T23:04:38.712Z,4.90
2018-08-18T23:07:07.213Z,4.83
2018-08-18T23:09:34.929Z,4.73
2018-08-18T23:12:04.423Z,4.40
2018-08-18T23:14:34.312Z,5.37
2018-08-18T23:17:02.343Z,4.90
2018-08-18T23:19:31.372Z,4.83
2018-08-18T23:21:59.145Z,5.90
2018-08-18T23:24:38.889Z,5.10
2018-08-18T23:27:06.624Z,5.50
2018-08-18T23:29:34.362Z,5.60
2018-08-18T23:32:16.024Z,4.83
2018-08-18T23:34:43.834Z,5.13
2018-08-18T23:37:17.008Z,5.90
2018-08-18T23:39:44.793Z,5.17
2018-08-18T23:42:18.893Z,5.23
2018-08-18T23:44:47.414Z,5.20
2018-08-18T23:47:15.167Z,5.13
2018-08-18T23:49:42.930Z,4.93
2018-08-18T23:52:10.696Z,4.73
2018-08-18T23:54:38.456Z,5.73
2018-08-18T23:57:06.254Z,4.50
2018-08-18T23:59:34.115Z,4.63
